Aviation Digital Data Service (ADDS)

Output produced by METARs form (0150 UTC 25 February 2018)
found at http://aviationweather.gov/adds/metars/
 
METAR text: EHGG 250125Z AUTO 08009KT 050V110 9999 NCD M04/M08 Q1032
Conditions at: EHGG (GRONINGEN/EELDE , NL) observed 0125 UTC 25 February 2018
Temperature: -4.0°C (25°F)
Dewpoint: -8.0°C (18°F) [RH = 74%]
Pressure (altimeter): 30.47 inches Hg (1032.0 mb)
Winds: from the E (80 degrees) at 10 MPH (9 knots; 4.7 m/s)
Visibility: 6 or more miles (10+ km)
Ceiling: at least 12,000 feet AGL
Clouds: sky clear below 12,000 feet AGL
Weather: no significant weather observed at this time